Humidity-temperature Sensor

Selected Measurement Type: Relative Humidity

 
Relative Humidity [%]     6 entries per hour
Showing data from 2/3/2023 (00:00:00 Z) to 2/2/2023 (00:01:00 Z)
Previous Next [ Day | 3-Days | 7-Days ]
First Last
Prev [ Day | 3-Days | 7-Days ] Next
First Last

Start Time:     :
End Time:     :     
Time (in GMT) :00 :50 :40 :30 :20 :10
Previous Next [ Day | 3-Days | 7-Days ]
First Last
Prev [ Day | 3-Days | 7-Days ] Next
First Last


123 => good data
MM => data is determined as missing
-- => data not received/configured
Back to Top Back to Top
2/3/2023 00:00 to 23:10 94.25 95.18 95.61 95.83 95.67 95.09
2/2/2023 23:00 to 22:10 95.34 95.18 94.15 93.04 90.80 89.98
2/2/2023 22:00 to 21:10 89.96 90.02 90.20 90.27 90.45 90.31
2/2/2023 21:00 to 20:10 90.53 90.80 90.78 91.19 91.07 91.33
2/2/2023 20:00 to 19:10 91.77 91.97 92.22 92.44 92.63 91.37
2/2/2023 19:00 to 18:10 91.62 91.60 91.15 90.66 90.24 89.81
2/2/2023 18:00 to 17:10 89.85 89.94 90.29 90.47 90.55 90.82
2/2/2023 17:00 to 16:10 90.70 90.33 90.59 90.96 90.51 90.55
2/2/2023 16:00 to 15:10 90.92 91.29 91.81 91.95 91.54 91.81
2/2/2023 15:00 to 14:10 91.83 92.01 92.36 92.69 93.33 93.82
2/2/2023 14:00 to 13:10 94.27 94.68 94.99 95.32 95.59 95.53
2/2/2023 13:00 to 12:10 95.77 95.94 95.96 96.24 96.08 95.85
2/2/2023 12:00 to 11:10 95.46 95.42 95.85 96.33 96.84 97.03
2/2/2023 11:00 to 10:10 96.92 96.47 96.33 96.27 95.98 95.46
2/2/2023 10:00 to 9:10 94.58 93.18 93.08 93.22 93.29 93.59
2/2/2023 09:00 to 8:10 93.55 93.57 93.47 93.35 93.43 93.43
2/2/2023 08:00 to 7:10 93.51 93.57 93.49 93.41 93.37 93.39
2/2/2023 07:00 to 6:10 93.51 93.78 93.57 93.88 93.88 93.74
2/2/2023 06:00 to 5:10 93.82 94.13 94.58 95.20 95.42 95.90
2/2/2023 05:00 to 4:10 96.00 96.37 96.51 96.88 97.15 97.52
2/2/2023 04:00 to 3:10 97.95 98.30 98.40 98.48 98.75 98.75
2/2/2023 03:00 to 2:10 98.81 98.88 98.63 98.26 97.99 97.66
2/2/2023 02:00 to 1:10 97.13 96.14 94.60 91.62 91.19 91.77
2/2/2023 01:00 to 0:10 90.82 90.27 90.68 90.70 90.59 90.43